WetterOnline ( http://www.wetteronline.de )

Wetter aktuell Freising

Aktuelles Wetter: Weihenstephan-Dürnast (478m)

6-stündlich | Neueste Meldungen
Ortszeit Temperatur Wetter
Mo, 23.04. 8:00 14.0° C bedeckt
Mo, 23.04. 2:00 15.5° C wolkig
So, 22.04. 20:00 20.7° C wolkig
So, 22.04. 14:00 25.5° C leicht bewölkt
So, 22.04. 8:00 12.1° C leicht bewölkt
So, 22.04. 2:00 11.8° C wolkig
Sa, 21.04. 20:00 22.3° C leicht bewölkt
Sa, 21.04. 14:00 25.4° C leicht bewölkt
Ortszeit Temperatur Wetter
Mo, 23.04. 9:00 15.2° C bewölkt
Mo, 23.04. 8:40 14.6° C Sprühregen
Mo, 23.04. 8:30 15.2° C bedeckt
Mo, 23.04. 8:20 15.2° C bedeckt
Mo, 23.04. 8:10 15.3° C bedeckt
Mo, 23.04. 8:00 14.0° C bedeckt
Mo, 23.04. 7:50 14.0° C bedeckt
Mo, 23.04. 7:30 13.7° C bewölkt
Mo, 23.04. 7:00 12.9° C bewölkt
Mo, 23.04. 6:30 14.1° C wolkig
Mo, 23.04. 6:00 13.7° C bewölkt
Ortszeit Relative Feuchte Sichtweite
Mo, 23.04. 8:00 74% 20 km
Mo, 23.04. 2:00 59% 30 km
So, 22.04. 20:00 50% 45 km
So, 22.04. 14:00 40% 21 km
So, 22.04. 8:00 77% 14 km
So, 22.04. 2:00 78% 25 km
Sa, 21.04. 20:00 42% 14 km
Sa, 21.04. 14:00 33% 23 km
Ortszeit Relative Feuchte Sichtweite
Mo, 23.04. 9:00 68% 26 km
Mo, 23.04. 8:40 77% -
Mo, 23.04. 8:30 66% 30 km
Mo, 23.04. 8:20 66% -
Mo, 23.04. 8:10 64% -
Mo, 23.04. 8:00 74% 20 km
Mo, 23.04. 7:50 74% -
Mo, 23.04. 7:30 73% 27 km
Mo, 23.04. 7:00 74% 29 km
Mo, 23.04. 6:30 65% 35 km
Mo, 23.04. 6:00 65% 26 km
Ortszeit Niederschlagsmenge Niederschlagsart
Mo, 23.04. 8:00 0.1 l/m2 in 12 Std. Regen
Mo, 23.04. 2:00 0.0 l/m2 in 6 Std. -
So, 22.04. 20:00 0.0 l/m2 in 12 Std. -
So, 22.04. 14:00 0.0 l/m2 in 6 Std. -
So, 22.04. 8:00 0.0 l/m2 in 12 Std. -
So, 22.04. 2:00 0.0 l/m2 in 6 Std. -
Sa, 21.04. 20:00 0.0 l/m2 in 12 Std. -
Sa, 21.04. 14:00 0.0 l/m2 in 6 Std. -
Ortszeit Niederschlagsmenge Niederschlagsart
Mo, 23.04. 9:00 0.1 l/m2 in 1 Std. Regen
Mo, 23.04. 8:40 keine Meldung -
Mo, 23.04. 8:30 0.1 l/m2 in 1 Std. Schneeregen
Mo, 23.04. 8:20 keine Meldung -
Mo, 23.04. 8:10 keine Meldung -
Mo, 23.04. 8:00 0.1 l/m2 in 1 Std. Regen
Mo, 23.04. 7:50 keine Meldung -
Mo, 23.04. 7:30 0.1 l/m2 in 1 Std. Schneeregen
Mo, 23.04. 7:00 0.1 l/m2 in 1 Std. Regen
Mo, 23.04. 6:30 0.0 l/m2 in 1 Std. -
Mo, 23.04. 6:00 0.0 l/m2 in 1 Std. -
Ortszeit Stärke Spitze Richtung
km/h Bft. km/h Grad Sektor
Mo, 23.04. 8:00 4 1 22 260° W
Mo, 23.04. 2:00 13 3 19 240° SW
So, 22.04. 20:00 0 0 29 - -
So, 22.04. 14:00 9 2 19 220° SW
So, 22.04. 8:00 0 0 7 - -
So, 22.04. 2:00 4 1 11 260° W
Sa, 21.04. 20:00 6 1 31 300° NW
Sa, 21.04. 14:00 14 3 29 250° W
Ortszeit Stärke Spitze Richtung
km/h Bft. km/h Grad Sektor
Mo, 23.04. 9:00 7 2 14 190° S
Mo, 23.04. 8:40 6 1 - 150° SO
Mo, 23.04. 8:30 9 2 15 230° SW
Mo, 23.04. 8:20 9 2 - 230° SW
Mo, 23.04. 8:10 11 2 - 230° SW
Mo, 23.04. 8:00 4 1 22 260° W
Mo, 23.04. 7:50 4 1 - 260° W
Mo, 23.04. 7:30 9 2 20 250° W
Mo, 23.04. 7:00 6 1 22 180° S
Mo, 23.04. 6:30 15 3 22 260° W
Mo, 23.04. 6:00 13 3 19 250° W
Ortszeit Untergrenze Bedeckung Gattung
total tief tief mittel hoch
Mo, 23.04. 8:00 3000 m 8/8 8/8 - - -
Mo, 23.04. 2:00 3000 m 8/8 1/8 - - -
So, 22.04. 20:00 7800 m 8/8 0/8 - - -
So, 22.04. 14:00 10500 m 4/8 0/8 - - -
So, 22.04. 8:00 2400 m 3/8 3/8 - - -
So, 22.04. 2:00 10500 m 8/8 0/8 - - -
Sa, 21.04. 20:00 10500 m 7/8 0/8 - - -
Sa, 21.04. 14:00 9000 m 7/8 0/8 - - -
Ortszeit Bedeckungsgrad in Achtel und Wolkenuntergrenze
Mo, 23.04. 9:00 1(1500m) 7(2100m) 7(2700m)
Mo, 23.04. 8:40 2(1500m) 8(2100m)
Mo, 23.04. 8:30 2(1500m) 5(2400m) 8(2700m)
Mo, 23.04. 8:20 2(1500m) 5(2400m) 8(2700m)
Mo, 23.04. 8:10 8(2700m) 8(3900m)
Mo, 23.04. 8:00 8(3000m) 8(3900m)
Mo, 23.04. 7:50 8(3000m) 8(3900m)
Mo, 23.04. 7:30 5(2100m) 7(2700m)
Mo, 23.04. 7:00 1(2100m) 7(2400m) 7(3300m)
Mo, 23.04. 6:30 2(2400m) 8(3300m) 8(5700m)
Mo, 23.04. 6:00 6(2400m) 8(3300m) 8(7200m)
Ortszeit Luftdruck NN (hPa) Tendenz (hPa in 3 Std.)
Mo, 23.04. 8:00 1016 + 0,7
Mo, 23.04. 2:00 1015 + 0,5
So, 22.04. 20:00 1013 - 0,2
So, 22.04. 14:00 1014 - 1,2
So, 22.04. 8:00 1018 + 0,3
So, 22.04. 2:00 1018 - 0,2
Sa, 21.04. 20:00 1016 - 0,6
Sa, 21.04. 14:00 1017 - 1,1
Ortszeit Luftdruck NN (hPa) Tendenz (hPa in 3 Std.)
Mo, 23.04. 9:00 1016 + 0,3
Mo, 23.04. 8:40 1016 keine Meldung
Mo, 23.04. 8:30 1016 + 0,5
Mo, 23.04. 8:20 1016 keine Meldung
Mo, 23.04. 8:10 1016 keine Meldung
Mo, 23.04. 8:00 1016 + 0,7
Mo, 23.04. 7:50 1016 keine Meldung
Mo, 23.04. 7:30 1016 + 0,7
Mo, 23.04. 7:00 1016 + 0,7
Mo, 23.04. 6:30 1016 + 0,6
Mo, 23.04. 6:00 1016 + 0,6
Ortszeit Schneehöhe (cm)
Mo, 23.04. 8:00 0
Mo, 23.04. 2:00 0
So, 22.04. 20:00 0
So, 22.04. 14:00 0
So, 22.04. 8:00 0
So, 22.04. 2:00 0
Sa, 21.04. 20:00 0
Sa, 21.04. 14:00 0
Ortszeit Schneehöhe (cm)
Mo, 23.04. 9:00 -
Mo, 23.04. 8:40 -
Mo, 23.04. 8:30 -
Mo, 23.04. 8:20 -
Mo, 23.04. 8:10 0
Mo, 23.04. 8:00 0
Mo, 23.04. 7:50 0
Mo, 23.04. 7:30 0
Mo, 23.04. 7:00 0
Mo, 23.04. 6:30 0
Mo, 23.04. 6:00 0
Link zu dieser Seite / Seite empfehlen

Das Wetter in ...